sensor_id;sensor_type;location;lat;lon;timestamp;P1;durP1;ratioP1;P2;durP2;ratioP2
35496;SDS011;21609;49.298;6.844;2023-04-10T00:01:34;2.30;;;2.10;;
35496;SDS011;21609;49.298;6.844;2023-04-10T00:04:01;2.03;;;1.83;;
35496;SDS011;21609;49.298;6.844;2023-04-10T00:06:27;1.70;;;1.60;;
35496;SDS011;21609;49.298;6.844;2023-04-10T00:08:53;3.38;;;2.03;;
35496;SDS011;21609;49.298;6.844;2023-04-10T00:11:18;2.47;;;2.28;;
35496;SDS011;21609;49.298;6.844;2023-04-10T00:13:44;3.70;;;2.42;;
35496;SDS011;21609;49.298;6.844;2023-04-10T00:16:10;3.03;;;2.00;;
35496;SDS011;21609;49.298;6.844;2023-04-10T00:18:35;2.40;;;2.20;;
35496;SDS011;21609;49.298;6.844;2023-04-10T00:21:04;2.60;;;1.98;;
35496;SDS011;21609;49.298;6.844;2023-04-10T00:23:30;2.58;;;2.03;;
35496;SDS011;21609;49.298;6.844;2023-04-10T00:25:59;3.50;;;1.60;;
35496;SDS011;21609;49.298;6.844;2023-04-10T00:28:25;1.85;;;1.75;;
35496;SDS011;21609;49.298;6.844;2023-04-10T00:30:50;4.25;;;2.20;;
35496;SDS011;21609;49.298;6.844;2023-04-10T00:33:16;2.75;;;2.13;;
35496;SDS011;21609;49.298;6.844;2023-04-10T00:35:41;2.33;;;1.92;;
35496;SDS011;21609;49.298;6.844;2023-04-10T00:38:07;3.72;;;2.28;;
35496;SDS011;21609;49.298;6.844;2023-04-10T00:40:32;2.10;;;1.90;;
35496;SDS011;21609;49.298;6.844;2023-04-10T00:42:58;2.35;;;2.13;;
35496;SDS011;21609;49.298;6.844;2023-04-10T00:45:24;2.50;;;1.80;;
35496;SDS011;21609;49.298;6.844;2023-04-10T00:47:50;1.60;;;1.50;;
35496;SDS011;21609;49.298;6.844;2023-04-10T00:50:16;2.20;;;1.95;;
35496;SDS011;21609;49.298;6.844;2023-04-10T00:52:43;2.65;;;2.00;;
35496;SDS011;21609;49.298;6.844;2023-04-10T00:55:08;2.20;;;1.75;;
35496;SDS011;21609;49.298;6.844;2023-04-10T00:57:35;2.05;;;1.90;;
35496;SDS011;21609;49.298;6.844;2023-04-10T01:00:02;2.28;;;2.08;;
35496;SDS011;21609;49.298;6.844;2023-04-10T01:02:29;2.90;;;1.98;;
35496;SDS011;21609;49.298;6.844;2023-04-10T01:04:56;1.30;;;1.20;;
35496;SDS011;21609;49.298;6.844;2023-04-10T01:13:05;2.05;;;1.90;;
35496;SDS011;21609;49.298;6.844;2023-04-10T01:15:41;1.83;;;1.70;;
35496;SDS011;21609;49.298;6.844;2023-04-10T01:20:40;2.00;;;1.80;;
35496;SDS011;21609;49.298;6.844;2023-04-10T01:26:04;2.03;;;1.80;;
35496;SDS011;21609;49.298;6.844;2023-04-10T01:31:28;2.55;;;2.00;;
35496;SDS011;21609;49.298;6.844;2023-04-10T01:33:59;1.73;;;1.63;;
35496;SDS011;21609;49.298;6.844;2023-04-10T01:36:32;1.65;;;1.55;;
35496;SDS011;21609;49.298;6.844;2023-04-10T01:39:01;2.50;;;2.00;;
35496;SDS011;21609;49.298;6.844;2023-04-10T01:41:29;4.95;;;2.05;;
35496;SDS011;21609;49.298;6.844;2023-04-10T01:43:56;1.80;;;1.65;;
35496;SDS011;21609;49.298;6.844;2023-04-10T01:46:23;2.10;;;1.90;;
35496;SDS011;21609;49.298;6.844;2023-04-10T01:48:50;1.92;;;1.83;;
35496;SDS011;21609;49.298;6.844;2023-04-10T01:51:18;1.80;;;1.70;;
35496;SDS011;21609;49.298;6.844;2023-04-10T01:53:44;2.60;;;2.00;;
35496;SDS011;21609;49.298;6.844;2023-04-10T01:56:12;3.03;;;2.05;;
35496;SDS011;21609;49.298;6.844;2023-04-10T01:58:37;1.73;;;1.63;;
35496;SDS011;21609;49.298;6.844;2023-04-10T02:01:03;3.20;;;1.83;;
35496;SDS011;21609;49.298;6.844;2023-04-10T02:03:29;1.95;;;1.80;;
35496;SDS011;21609;49.298;6.844;2023-04-10T02:08:39;1.48;;;1.38;;
35496;SDS011;21609;49.298;6.844;2023-04-10T02:11:16;2.83;;;1.75;;
35496;SDS011;21609;49.298;6.844;2023-04-10T02:13:56;3.22;;;1.60;;
35496;SDS011;21609;49.298;6.844;2023-04-10T02:18:53;2.10;;;1.48;;
35496;SDS011;21609;49.298;6.844;2023-04-10T02:21:20;3.20;;;1.80;;
35496;SDS011;21609;49.298;6.844;2023-04-10T02:23:45;4.05;;;1.77;;
35496;SDS011;21609;49.298;6.844;2023-04-10T02:26:11;2.55;;;2.35;;
35496;SDS011;21609;49.298;6.844;2023-04-10T02:28:37;1.55;;;1.40;;
35496;SDS011;21609;49.298;6.844;2023-04-10T02:31:03;3.20;;;1.92;;
35496;SDS011;21609;49.298;6.844;2023-04-10T02:33:29;1.88;;;1.70;;
35496;SDS011;21609;49.298;6.844;2023-04-10T02:35:55;2.15;;;1.95;;
35496;SDS011;21609;49.298;6.844;2023-04-10T02:38:21;2.83;;;2.40;;
35496;SDS011;21609;49.298;6.844;2023-04-10T02:40:46;2.08;;;1.88;;
35496;SDS011;21609;49.298;6.844;2023-04-10T02:43:14;2.95;;;2.08;;
35496;SDS011;21609;49.298;6.844;2023-04-10T02:45:39;2.63;;;1.88;;
35496;SDS011;21609;49.298;6.844;2023-04-10T02:48:05;2.00;;;1.88;;
35496;SDS011;21609;49.298;6.844;2023-04-10T02:50:31;1.80;;;1.60;;
35496;SDS011;21609;49.298;6.844;2023-04-10T02:52:56;3.08;;;2.47;;
35496;SDS011;21609;49.298;6.844;2023-04-10T02:55:22;2.40;;;1.90;;
35496;SDS011;21609;49.298;6.844;2023-04-10T02:57:48;2.42;;;1.80;;
35496;SDS011;21609;49.298;6.844;2023-04-10T03:00:13;1.98;;;1.88;;
35496;SDS011;21609;49.298;6.844;2023-04-10T03:02:39;2.22;;;1.70;;
35496;SDS011;21609;49.298;6.844;2023-04-10T03:05:05;1.77;;;1.67;;
35496;SDS011;21609;49.298;6.844;2023-04-10T03:07:32;2.80;;;2.10;;
35496;SDS011;21609;49.298;6.844;2023-04-10T03:09:58;2.10;;;1.90;;
35496;SDS011;21609;49.298;6.844;2023-04-10T03:12:23;1.90;;;1.80;;
35496;SDS011;21609;49.298;6.844;2023-04-10T03:14:49;1.80;;;1.70;;
35496;SDS011;21609;49.298;6.844;2023-04-10T03:17:15;1.88;;;1.77;;
35496;SDS011;21609;49.298;6.844;2023-04-10T03:19:40;1.88;;;1.70;;
35496;SDS011;21609;49.298;6.844;2023-04-10T03:22:06;2.03;;;1.92;;
35496;SDS011;21609;49.298;6.844;2023-04-10T03:24:31;2.53;;;2.33;;
35496;SDS011;21609;49.298;6.844;2023-04-10T03:26:57;2.25;;;2.05;;
35496;SDS011;21609;49.298;6.844;2023-04-10T03:29:22;3.25;;;1.60;;
35496;SDS011;21609;49.298;6.844;2023-04-10T03:31:48;1.75;;;1.65;;
35496;SDS011;21609;49.298;6.844;2023-04-10T03:34:14;2.20;;;2.00;;
35496;SDS011;21609;49.298;6.844;2023-04-10T03:36:39;1.80;;;1.70;;
35496;SDS011;21609;49.298;6.844;2023-04-10T03:39:05;2.85;;;1.80;;
35496;SDS011;21609;49.298;6.844;2023-04-10T03:41:30;2.80;;;2.15;;
35496;SDS011;21609;49.298;6.844;2023-04-10T03:43:56;1.67;;;1.58;;
35496;SDS011;21609;49.298;6.844;2023-04-10T03:46:22;2.80;;;1.75;;
35496;SDS011;21609;49.298;6.844;2023-04-10T03:48:47;1.52;;;1.42;;
35496;SDS011;21609;49.298;6.844;2023-04-10T03:51:17;2.20;;;2.00;;
35496;SDS011;21609;49.298;6.844;2023-04-10T03:53:43;1.95;;;1.75;;
35496;SDS011;21609;49.298;6.844;2023-04-10T03:56:09;2.92;;;2.20;;
35496;SDS011;21609;49.298;6.844;2023-04-10T03:58:35;1.88;;;1.77;;
35496;SDS011;21609;49.298;6.844;2023-04-10T04:01:00;3.40;;;2.00;;
35496;SDS011;21609;49.298;6.844;2023-04-10T04:03:26;1.40;;;1.30;;
35496;SDS011;21609;49.298;6.844;2023-04-10T04:05:51;2.47;;;1.95;;
35496;SDS011;21609;49.298;6.844;2023-04-10T04:08:17;1.67;;;1.58;;
35496;SDS011;21609;49.298;6.844;2023-04-10T04:10:42;2.50;;;1.88;;
35496;SDS011;21609;49.298;6.844;2023-04-10T04:13:08;2.35;;;1.58;;
35496;SDS011;21609;49.298;6.844;2023-04-10T04:15:33;3.05;;;1.65;;
35496;SDS011;21609;49.298;6.844;2023-04-10T04:17:59;1.80;;;1.70;;
35496;SDS011;21609;49.298;6.844;2023-04-10T04:20:25;1.98;;;1.88;;
35496;SDS011;21609;49.298;6.844;2023-04-10T04:22:50;1.80;;;1.70;;
35496;SDS011;21609;49.298;6.844;2023-04-10T04:25:16;2.58;;;1.70;;
35496;SDS011;21609;49.298;6.844;2023-04-10T04:27:43;1.75;;;1.65;;
35496;SDS011;21609;49.298;6.844;2023-04-10T04:30:09;1.88;;;1.77;;
35496;SDS011;21609;49.298;6.844;2023-04-10T04:32:35;1.92;;;1.77;;
35496;SDS011;21609;49.298;6.844;2023-04-10T04:35:00;1.73;;;1.63;;
35496;SDS011;21609;49.298;6.844;2023-04-10T04:37:26;2.03;;;1.83;;
35496;SDS011;21609;49.298;6.844;2023-04-10T04:39:52;1.85;;;1.75;;
35496;SDS011;21609;49.298;6.844;2023-04-10T04:42:17;1.90;;;1.80;;
35496;SDS011;21609;49.298;6.844;2023-04-10T04:44:43;1.88;;;1.77;;
35496;SDS011;21609;49.298;6.844;2023-04-10T04:47:08;2.38;;;1.67;;
35496;SDS011;21609;49.298;6.844;2023-04-10T04:49:34;2.25;;;2.05;;
35496;SDS011;21609;49.298;6.844;2023-04-10T04:51:59;3.00;;;2.40;;
35496;SDS011;21609;49.298;6.844;2023-04-10T04:54:25;1.90;;;1.70;;
35496;SDS011;21609;49.298;6.844;2023-04-10T04:56:50;2.13;;;1.92;;
35496;SDS011;21609;49.298;6.844;2023-04-10T04:59:16;2.65;;;1.95;;
35496;SDS011;21609;49.298;6.844;2023-04-10T05:01:42;1.80;;;1.70;;
35496;SDS011;21609;49.298;6.844;2023-04-10T05:04:07;1.55;;;1.45;;
35496;SDS011;21609;49.298;6.844;2023-04-10T05:06:33;2.17;;;1.98;;
35496;SDS011;21609;49.298;6.844;2023-04-10T05:08:58;2.00;;;1.90;;
35496;SDS011;21609;49.298;6.844;2023-04-10T05:11:24;2.38;;;1.67;;
35496;SDS011;21609;49.298;6.844;2023-04-10T05:13:49;1.88;;;1.77;;
35496;SDS011;21609;49.298;6.844;2023-04-10T05:16:15;2.13;;;1.92;;
35496;SDS011;21609;49.298;6.844;2023-04-10T05:18:40;2.33;;;2.13;;
35496;SDS011;21609;49.298;6.844;2023-04-10T05:21:06;1.85;;;1.75;;
35496;SDS011;21609;49.298;6.844;2023-04-10T05:23:32;1.50;;;1.40;;
35496;SDS011;21609;49.298;6.844;2023-04-10T05:25:57;2.15;;;1.95;;
35496;SDS011;21609;49.298;6.844;2023-04-10T05:28:23;3.10;;;2.17;;
35496;SDS011;21609;49.298;6.844;2023-04-10T05:30:48;2.90;;;2.20;;
35496;SDS011;21609;49.298;6.844;2023-04-10T05:33:14;1.95;;;1.75;;
35496;SDS011;21609;49.298;6.844;2023-04-10T05:35:39;4.18;;;2.10;;
35496;SDS011;21609;49.298;6.844;2023-04-10T05:38:05;4.82;;;1.80;;
35496;SDS011;21609;49.298;6.844;2023-04-10T05:40:30;6.47;;;2.08;;
35496;SDS011;21609;49.298;6.844;2023-04-10T05:42:56;3.97;;;1.73;;
35496;SDS011;21609;49.298;6.844;2023-04-10T05:45:22;3.10;;;2.20;;
35496;SDS011;21609;49.298;6.844;2023-04-10T05:47:47;2.72;;;2.22;;
35496;SDS011;21609;49.298;6.844;2023-04-10T05:50:13;2.47;;;1.70;;
35496;SDS011;21609;49.298;6.844;2023-04-10T05:52:39;3.08;;;2.28;;
35496;SDS011;21609;49.298;6.844;2023-04-10T05:55:04;3.85;;;2.70;;
35496;SDS011;21609;49.298;6.844;2023-04-10T05:57:31;2.83;;;2.60;;
35496;SDS011;21609;49.298;6.844;2023-04-10T05:59:56;2.50;;;2.00;;
35496;SDS011;21609;49.298;6.844;2023-04-10T06:02:27;2.45;;;1.92;;
35496;SDS011;21609;49.298;6.844;2023-04-10T06:05:01;2.40;;;2.20;;
35496;SDS011;21609;49.298;6.844;2023-04-10T06:07:27;3.67;;;2.25;;
35496;SDS011;21609;49.298;6.844;2023-04-10T06:09:52;2.65;;;2.45;;
35496;SDS011;21609;49.298;6.844;2023-04-10T06:12:20;3.65;;;2.42;;
35496;SDS011;21609;49.298;6.844;2023-04-10T06:14:46;2.47;;;2.03;;
35496;SDS011;21609;49.298;6.844;2023-04-10T06:17:14;1.90;;;1.80;;
35496;SDS011;21609;49.298;6.844;2023-04-10T06:19:43;2.88;;;2.55;;
35496;SDS011;21609;49.298;6.844;2023-04-10T06:22:15;3.00;;;2.40;;
35496;SDS011;21609;49.298;6.844;2023-04-10T06:24:40;2.47;;;2.28;;
35496;SDS011;21609;49.298;6.844;2023-04-10T06:27:06;3.83;;;2.45;;
35496;SDS011;21609;49.298;6.844;2023-04-10T06:29:32;3.92;;;2.58;;
35496;SDS011;21609;49.298;6.844;2023-04-10T06:32:03;2.60;;;2.40;;
35496;SDS011;21609;49.298;6.844;2023-04-10T06:34:29;3.25;;;2.15;;
35496;SDS011;21609;49.298;6.844;2023-04-10T06:37:01;3.90;;;2.40;;
35496;SDS011;21609;49.298;6.844;2023-04-10T06:39:36;2.45;;;2.00;;
35496;SDS011;21609;49.298;6.844;2023-04-10T06:42:05;2.80;;;2.60;;
35496;SDS011;21609;49.298;6.844;2023-04-10T06:44:40;4.72;;;3.20;;
35496;SDS011;21609;49.298;6.844;2023-04-10T06:47:05;3.08;;;2.75;;
35496;SDS011;21609;49.298;6.844;2023-04-10T06:49:46;3.78;;;2.90;;
35496;SDS011;21609;49.298;6.844;2023-04-10T06:52:12;3.75;;;3.00;;
35496;SDS011;21609;49.298;6.844;2023-04-10T06:54:43;6.43;;;2.95;;
35496;SDS011;21609;49.298;6.844;2023-04-10T06:57:09;3.40;;;3.13;;
35496;SDS011;21609;49.298;6.844;2023-04-10T06:59:35;3.35;;;3.05;;
35496;SDS011;21609;49.298;6.844;2023-04-10T07:02:04;4.38;;;3.60;;
35496;SDS011;21609;49.298;6.844;2023-04-10T07:04:30;3.63;;;3.00;;
35496;SDS011;21609;49.298;6.844;2023-04-10T07:06:55;4.13;;;2.88;;
35496;SDS011;21609;49.298;6.844;2023-04-10T07:09:21;3.40;;;3.10;;
35496;SDS011;21609;49.298;6.844;2023-04-10T07:11:50;5.28;;;2.85;;
35496;SDS011;21609;49.298;6.844;2023-04-10T07:14:16;4.07;;;3.30;;
35496;SDS011;21609;49.298;6.844;2023-04-10T07:16:48;4.88;;;2.85;;
35496;SDS011;21609;49.298;6.844;2023-04-10T07:19:16;5.22;;;3.10;;
35496;SDS011;21609;49.298;6.844;2023-04-10T07:21:42;3.15;;;2.83;;
35496;SDS011;21609;49.298;6.844;2023-04-10T07:24:14;4.72;;;3.35;;
35496;SDS011;21609;49.298;6.844;2023-04-10T07:26:40;3.17;;;2.88;;
35496;SDS011;21609;49.298;6.844;2023-04-10T07:29:15;4.50;;;2.85;;
35496;SDS011;21609;49.298;6.844;2023-04-10T07:31:43;5.50;;;2.78;;
35496;SDS011;21609;49.298;6.844;2023-04-10T07:34:09;4.57;;;3.20;;
35496;SDS011;21609;49.298;6.844;2023-04-10T07:36:38;2.85;;;2.65;;
35496;SDS011;21609;49.298;6.844;2023-04-10T07:39:06;3.22;;;2.90;;
35496;SDS011;21609;49.298;6.844;2023-04-10T07:41:32;3.90;;;2.45;;
35496;SDS011;21609;49.298;6.844;2023-04-10T07:44:00;3.22;;;2.70;;
35496;SDS011;21609;49.298;6.844;2023-04-10T07:46:29;3.10;;;2.80;;
35496;SDS011;21609;49.298;6.844;2023-04-10T07:48:57;2.50;;;2.28;;
35496;SDS011;21609;49.298;6.844;2023-04-10T07:51:28;2.83;;;2.63;;
35496;SDS011;21609;49.298;6.844;2023-04-10T07:54:02;4.22;;;2.75;;
35496;SDS011;21609;49.298;6.844;2023-04-10T07:56:30;4.07;;;3.17;;
35496;SDS011;21609;49.298;6.844;2023-04-10T07:58:59;5.18;;;3.70;;
35496;SDS011;21609;49.298;6.844;2023-04-10T08:01:26;7.03;;;3.22;;
35496;SDS011;21609;49.298;6.844;2023-04-10T08:03:52;7.20;;;3.45;;
35496;SDS011;21609;49.298;6.844;2023-04-10T08:06:20;6.18;;;2.97;;
35496;SDS011;21609;49.298;6.844;2023-04-10T08:08:45;4.93;;;3.63;;
35496;SDS011;21609;49.298;6.844;2023-04-10T08:11:28;5.68;;;4.10;;
35496;SDS011;21609;49.298;6.844;2023-04-10T08:13:59;5.75;;;3.40;;
35496;SDS011;21609;49.298;6.844;2023-04-10T08:16:29;3.60;;;3.30;;
35496;SDS011;21609;49.298;6.844;2023-04-10T08:18:56;3.80;;;3.50;;
35496;SDS011;21609;49.298;6.844;2023-04-10T08:21:23;4.00;;;3.70;;
35496;SDS011;21609;49.298;6.844;2023-04-10T08:23:51;3.40;;;3.10;;
35496;SDS011;21609;49.298;6.844;2023-04-10T08:26:18;3.58;;;3.15;;
35496;SDS011;21609;49.298;6.844;2023-04-10T08:28:48;3.80;;;3.30;;
35496;SDS011;21609;49.298;6.844;2023-04-10T08:31:15;3.60;;;2.75;;
35496;SDS011;21609;49.298;6.844;2023-04-10T08:33:41;4.28;;;2.90;;
35496;SDS011;21609;49.298;6.844;2023-04-10T08:36:07;3.60;;;3.30;;
35496;SDS011;21609;49.298;6.844;2023-04-10T08:38:33;6.63;;;3.13;;
35496;SDS011;21609;49.298;6.844;2023-04-10T08:40:59;4.30;;;3.85;;
35496;SDS011;21609;49.298;6.844;2023-04-10T08:43:24;2.97;;;2.78;;
35496;SDS011;21609;49.298;6.844;2023-04-10T08:45:51;7.82;;;3.22;;
35496;SDS011;21609;49.298;6.844;2023-04-10T08:48:17;3.58;;;3.17;;
35496;SDS011;21609;49.298;6.844;2023-04-10T08:50:44;5.38;;;3.42;;
35496;SDS011;21609;49.298;6.844;2023-04-10T08:53:12;3.65;;;3.22;;
35496;SDS011;21609;49.298;6.844;2023-04-10T08:55:39;4.78;;;3.80;;
35496;SDS011;21609;49.298;6.844;2023-04-10T08:58:06;4.45;;;3.28;;
35496;SDS011;21609;49.298;6.844;2023-04-10T09:00:32;5.00;;;3.50;;
35496;SDS011;21609;49.298;6.844;2023-04-10T09:02:59;3.97;;;3.67;;
35496;SDS011;21609;49.298;6.844;2023-04-10T09:05:28;3.63;;;3.33;;
35496;SDS011;21609;49.298;6.844;2023-04-10T09:07:54;4.50;;;3.42;;
35496;SDS011;21609;49.298;6.844;2023-04-10T09:10:20;4.97;;;3.85;;
35496;SDS011;21609;49.298;6.844;2023-04-10T09:12:47;9.18;;;4.18;;
35496;SDS011;21609;49.298;6.844;2023-04-10T09:15:13;5.82;;;3.63;;
35496;SDS011;21609;49.298;6.844;2023-04-10T09:17:59;5.15;;;3.90;;
35496;SDS011;21609;49.298;6.844;2023-04-10T09:20:27;5.40;;;3.60;;
35496;SDS011;21609;49.298;6.844;2023-04-10T09:22:54;3.40;;;3.05;;
35496;SDS011;21609;49.298;6.844;2023-04-10T09:25:30;4.13;;;3.40;;
35496;SDS011;21609;49.298;6.844;2023-04-10T09:28:01;3.60;;;3.30;;
35496;SDS011;21609;49.298;6.844;2023-04-10T09:30:35;6.18;;;3.80;;
35496;SDS011;21609;49.298;6.844;2023-04-10T09:33:24;3.40;;;2.97;;
35496;SDS011;21609;49.298;6.844;2023-04-10T09:35:57;4.57;;;4.05;;
35496;SDS011;21609;49.298;6.844;2023-04-10T09:38:27;3.70;;;3.35;;
35496;SDS011;21609;49.298;6.844;2023-04-10T09:40:54;3.80;;;3.15;;
35496;SDS011;21609;49.298;6.844;2023-04-10T09:43:31;5.70;;;3.50;;
35496;SDS011;21609;49.298;6.844;2023-04-10T09:45:57;4.05;;;3.30;;
35496;SDS011;21609;49.298;6.844;2023-04-10T09:48:23;3.60;;;3.30;;
35496;SDS011;21609;49.298;6.844;2023-04-10T09:50:49;4.10;;;3.65;;
35496;SDS011;21609;49.298;6.844;2023-04-10T09:53:19;3.95;;;3.58;;
35496;SDS011;21609;49.298;6.844;2023-04-10T09:55:46;3.78;;;3.47;;
35496;SDS011;21609;49.298;6.844;2023-04-10T09:58:14;3.22;;;2.95;;
35496;SDS011;21609;49.298;6.844;2023-04-10T10:01:24;3.65;;;2.83;;
35496;SDS011;21609;49.298;6.844;2023-04-10T10:03:53;2.85;;;2.65;;
35496;SDS011;21609;49.298;6.844;2023-04-10T10:06:20;3.30;;;3.00;;
35496;SDS011;21609;49.298;6.844;2023-04-10T10:08:47;4.25;;;3.25;;
35496;SDS011;21609;49.298;6.844;2023-04-10T10:11:14;6.95;;;3.40;;
35496;SDS011;21609;49.298;6.844;2023-04-10T10:13:50;5.00;;;3.47;;
35496;SDS011;21609;49.298;6.844;2023-04-10T10:16:19;3.72;;;3.40;;
35496;SDS011;21609;49.298;6.844;2023-04-10T10:18:54;4.85;;;3.40;;
35496;SDS011;21609;49.298;6.844;2023-04-10T10:21:44;3.42;;;3.10;;
35496;SDS011;21609;49.298;6.844;2023-04-10T10:24:11;4.15;;;3.10;;
35496;SDS011;21609;49.298;6.844;2023-04-10T10:26:38;3.45;;;3.15;;
35496;SDS011;21609;49.298;6.844;2023-04-10T10:29:05;3.08;;;2.88;;
35496;SDS011;21609;49.298;6.844;2023-04-10T10:31:34;5.05;;;3.28;;
35496;SDS011;21609;49.298;6.844;2023-04-10T10:34:01;3.55;;;3.25;;
35496;SDS011;21609;49.298;6.844;2023-04-10T10:36:29;4.97;;;3.30;;
35496;SDS011;21609;49.298;6.844;2023-04-10T10:41:36;3.55;;;3.25;;
35496;SDS011;21609;49.298;6.844;2023-04-10T10:46:51;5.25;;;3.38;;
35496;SDS011;21609;49.298;6.844;2023-04-10T10:49:51;3.30;;;3.00;;
35496;SDS011;21609;49.298;6.844;2023-04-10T10:52:36;2.95;;;2.75;;
35496;SDS011;21609;49.298;6.844;2023-04-10T10:55:33;3.08;;;2.83;;
35496;SDS011;21609;49.298;6.844;2023-04-10T10:58:02;3.55;;;3.25;;
35496;SDS011;21609;49.298;6.844;2023-04-10T11:05:55;3.00;;;2.80;;
35496;SDS011;21609;49.298;6.844;2023-04-10T11:08:40;4.20;;;2.90;;
35496;SDS011;21609;49.298;6.844;2023-04-10T11:13:37;3.58;;;3.00;;
35496;SDS011;21609;49.298;6.844;2023-04-10T11:16:05;6.97;;;3.40;;
35496;SDS011;21609;49.298;6.844;2023-04-10T11:21:16;3.60;;;2.80;;
35496;SDS011;21609;49.298;6.844;2023-04-10T11:28:59;3.75;;;2.78;;
35496;SDS011;21609;49.298;6.844;2023-04-10T11:32:06;4.00;;;3.13;;
35496;SDS011;21609;49.298;6.844;2023-04-10T11:34:30;3.30;;;2.95;;
35496;SDS011;21609;49.298;6.844;2023-04-10T11:36:57;3.03;;;2.75;;
35496;SDS011;21609;49.298;6.844;2023-04-10T11:39:25;3.05;;;2.78;;
35496;SDS011;21609;49.298;6.844;2023-04-10T11:41:52;10.32;;;3.10;;
35496;SDS011;21609;49.298;6.844;2023-04-10T11:44:25;3.70;;;2.78;;
35496;SDS011;21609;49.298;6.844;2023-04-10T11:46:53;3.50;;;2.92;;
35496;SDS011;21609;49.298;6.844;2023-04-10T11:49:19;5.32;;;3.15;;
35496;SDS011;21609;49.298;6.844;2023-04-10T11:51:47;4.30;;;3.67;;
35496;SDS011;21609;49.298;6.844;2023-04-10T11:54:29;4.32;;;2.50;;
35496;SDS011;21609;49.298;6.844;2023-04-10T11:59:28;2.83;;;2.63;;
35496;SDS011;21609;49.298;6.844;2023-04-10T12:02:05;4.22;;;2.83;;
35496;SDS011;21609;49.298;6.844;2023-04-10T12:04:40;4.72;;;3.22;;
35496;SDS011;21609;49.298;6.844;2023-04-10T12:07:07;4.82;;;3.03;;
35496;SDS011;21609;49.298;6.844;2023-04-10T12:09:33;4.43;;;2.97;;
35496;SDS011;21609;49.298;6.844;2023-04-10T12:12:00;3.83;;;2.53;;
35496;SDS011;21609;49.298;6.844;2023-04-10T12:14:30;5.93;;;3.17;;
35496;SDS011;21609;49.298;6.844;2023-04-10T12:17:01;4.63;;;3.13;;
35496;SDS011;21609;49.298;6.844;2023-04-10T12:19:28;3.42;;;2.63;;
35496;SDS011;21609;49.298;6.844;2023-04-10T12:21:54;4.82;;;2.70;;
35496;SDS011;21609;49.298;6.844;2023-04-10T12:27:07;2.45;;;2.20;;
35496;SDS011;21609;49.298;6.844;2023-04-10T12:29:39;6.95;;;2.97;;
35496;SDS011;21609;49.298;6.844;2023-04-10T12:32:08;4.65;;;2.83;;
35496;SDS011;21609;49.298;6.844;2023-04-10T12:34:35;3.72;;;2.22;;
35496;SDS011;21609;49.298;6.844;2023-04-10T12:37:01;3.33;;;2.58;;
35496;SDS011;21609;49.298;6.844;2023-04-10T12:39:26;3.78;;;2.60;;
35496;SDS011;21609;49.298;6.844;2023-04-10T12:41:53;4.05;;;2.90;;
35496;SDS011;21609;49.298;6.844;2023-04-10T12:44:41;3.15;;;2.50;;
35496;SDS011;21609;49.298;6.844;2023-04-10T12:47:18;5.60;;;2.50;;
35496;SDS011;21609;49.298;6.844;2023-04-10T12:52:40;3.92;;;2.95;;
35496;SDS011;21609;49.298;6.844;2023-04-10T12:55:16;4.00;;;2.03;;
35496;SDS011;21609;49.298;6.844;2023-04-10T12:57:44;3.13;;;2.65;;
35496;SDS011;21609;49.298;6.844;2023-04-10T13:00:12;3.17;;;2.63;;
35496;SDS011;21609;49.298;6.844;2023-04-10T13:02:39;3.70;;;2.30;;
35496;SDS011;21609;49.298;6.844;2023-04-10T13:05:06;2.67;;;2.45;;
35496;SDS011;21609;49.298;6.844;2023-04-10T13:07:32;4.07;;;2.13;;
35496;SDS011;21609;49.298;6.844;2023-04-10T13:09:58;2.80;;;2.60;;
35496;SDS011;21609;49.298;6.844;2023-04-10T13:12:24;2.67;;;2.47;;
35496;SDS011;21609;49.298;6.844;2023-04-10T13:14:51;3.08;;;2.60;;
35496;SDS011;21609;49.298;6.844;2023-04-10T13:17:21;6.85;;;2.83;;
35496;SDS011;21609;49.298;6.844;2023-04-10T13:19:48;4.53;;;2.60;;
35496;SDS011;21609;49.298;6.844;2023-04-10T13:22:14;3.65;;;2.28;;
35496;SDS011;21609;49.298;6.844;2023-04-10T13:24:40;2.67;;;2.47;;
35496;SDS011;21609;49.298;6.844;2023-04-10T13:27:06;4.53;;;2.45;;
35496;SDS011;21609;49.298;6.844;2023-04-10T13:29:33;5.30;;;2.63;;
35496;SDS011;21609;49.298;6.844;2023-04-10T13:32:05;2.47;;;2.25;;
35496;SDS011;21609;49.298;6.844;2023-04-10T13:34:32;4.35;;;2.40;;
35496;SDS011;21609;49.298;6.844;2023-04-10T13:36:58;2.65;;;2.45;;
35496;SDS011;21609;49.298;6.844;2023-04-10T13:39:25;2.58;;;2.38;;
35496;SDS011;21609;49.298;6.844;2023-04-10T13:41:52;3.28;;;2.97;;
35496;SDS011;21609;49.298;6.844;2023-04-10T13:44:18;2.85;;;2.58;;
35496;SDS011;21609;49.298;6.844;2023-04-10T13:46:43;4.50;;;2.20;;
35496;SDS011;21609;49.298;6.844;2023-04-10T13:49:09;5.20;;;2.40;;
35496;SDS011;21609;49.298;6.844;2023-04-10T13:51:35;2.45;;;2.25;;
35496;SDS011;21609;49.298;6.844;2023-04-10T13:54:01;4.18;;;2.38;;
35496;SDS011;21609;49.298;6.844;2023-04-10T13:56:28;5.43;;;2.10;;
35496;SDS011;21609;49.298;6.844;2023-04-10T13:58:54;3.38;;;1.95;;
35496;SDS011;21609;49.298;6.844;2023-04-10T14:01:19;3.38;;;2.30;;
35496;SDS011;21609;49.298;6.844;2023-04-10T14:03:45;6.75;;;2.40;;
35496;SDS011;21609;49.298;6.844;2023-04-10T14:06:11;4.50;;;2.17;;
35496;SDS011;21609;49.298;6.844;2023-04-10T14:08:37;2.80;;;2.35;;
35496;SDS011;21609;49.298;6.844;2023-04-10T14:11:03;4.50;;;2.30;;
35496;SDS011;21609;49.298;6.844;2023-04-10T14:13:29;2.53;;;2.05;;
35496;SDS011;21609;49.298;6.844;2023-04-10T14:15:55;7.55;;;2.53;;
35496;SDS011;21609;49.298;6.844;2023-04-10T14:18:20;4.07;;;2.50;;
35496;SDS011;21609;49.298;6.844;2023-04-10T14:20:46;5.43;;;2.55;;
35496;SDS011;21609;49.298;6.844;2023-04-10T14:23:12;5.93;;;2.30;;
35496;SDS011;21609;49.298;6.844;2023-04-10T14:25:42;6.40;;;2.38;;
35496;SDS011;21609;49.298;6.844;2023-04-10T14:28:08;5.00;;;2.75;;
35496;SDS011;21609;49.298;6.844;2023-04-10T14:30:41;5.82;;;2.80;;
35496;SDS011;21609;49.298;6.844;2023-04-10T14:33:10;6.88;;;2.65;;
35496;SDS011;21609;49.298;6.844;2023-04-10T14:35:36;4.78;;;2.38;;
35496;SDS011;21609;49.298;6.844;2023-04-10T14:38:02;3.33;;;2.55;;
35496;SDS011;21609;49.298;6.844;2023-04-10T14:40:28;3.95;;;2.60;;
35496;SDS011;21609;49.298;6.844;2023-04-10T14:42:53;6.32;;;2.45;;
35496;SDS011;21609;49.298;6.844;2023-04-10T14:45:19;5.85;;;2.33;;
35496;SDS011;21609;49.298;6.844;2023-04-10T14:47:44;5.13;;;2.65;;
35496;SDS011;21609;49.298;6.844;2023-04-10T14:50:11;3.28;;;1.85;;
35496;SDS011;21609;49.298;6.844;2023-04-10T14:52:37;5.40;;;2.05;;
35496;SDS011;21609;49.298;6.844;2023-04-10T14:55:02;5.43;;;2.30;;
35496;SDS011;21609;49.298;6.844;2023-04-10T14:57:28;7.30;;;2.65;;
35496;SDS011;21609;49.298;6.844;2023-04-10T14:59:54;6.43;;;3.00;;
35496;SDS011;21609;49.298;6.844;2023-04-10T15:02:19;4.43;;;2.97;;
35496;SDS011;21609;49.298;6.844;2023-04-10T15:04:45;4.97;;;2.10;;
35496;SDS011;21609;49.298;6.844;2023-04-10T15:07:12;2.70;;;2.50;;
35496;SDS011;21609;49.298;6.844;2023-04-10T15:09:37;6.70;;;2.35;;
35496;SDS011;21609;49.298;6.844;2023-04-10T15:12:04;6.10;;;2.13;;
35496;SDS011;21609;49.298;6.844;2023-04-10T15:14:30;4.10;;;2.28;;
35496;SDS011;21609;49.298;6.844;2023-04-10T15:16:56;2.15;;;1.98;;
35496;SDS011;21609;49.298;6.844;2023-04-10T15:19:21;4.10;;;2.45;;
35496;SDS011;21609;49.298;6.844;2023-04-10T15:21:47;11.63;;;2.30;;
35496;SDS011;21609;49.298;6.844;2023-04-10T15:24:13;5.53;;;2.35;;
35496;SDS011;21609;49.298;6.844;2023-04-10T15:26:41;2.60;;;2.35;;
35496;SDS011;21609;49.298;6.844;2023-04-10T15:31:34;4.53;;;2.65;;
35496;SDS011;21609;49.298;6.844;2023-04-10T15:34:00;3.35;;;2.00;;
35496;SDS011;21609;49.298;6.844;2023-04-10T15:36:25;2.83;;;2.15;;
35496;SDS011;21609;49.298;6.844;2023-04-10T15:38:52;2.67;;;2.40;;
35496;SDS011;21609;49.298;6.844;2023-04-10T15:41:18;3.75;;;2.20;;
35496;SDS011;21609;49.298;6.844;2023-04-10T15:43:44;4.95;;;2.15;;